Time;durP1;ratioP1;P1;durP2;ratioP2;P2;SDS_P1;SDS_P2;PMS_P1;PMS_P2;Temp;Humidity;BMP_temperature;BMP_pressure;BME280_temperature;BME280_humidity;BME280_pressure;Samples;Min_cycle;Max_cycle;Signal;HPM_P1;HPM_P2
2023/06/13 00:00:44;;;;;;;;;;;;;;;14.68;52.73;101828.52;106773;1260;60610;-86
2023/06/13 00:03:33;;;;;;;;;;;;;;;14.67;52.80;101823.02;107132;1260;124611;-87
2023/06/13 00:06:22;;;;;;;;;;;;;;;14.66;52.73;101823.86;107198;1260;62079;-87
2023/06/13 00:08:51;;;;;;;;;;;;;;;14.62;52.70;101823.77;106953;1263;124102;-87
2023/06/13 00:12:06;;;;;;;;;;;;;;;;;;;;;
2023/06/13 00:14:50;;;;;;;;;;;;;;;14.54;52.74;101817.89;106858;1263;124262;-88
2023/06/13 00:17:17;;;;;;;;;;;;;;;14.49;52.74;101812.81;107134;1260;72551;-88
2023/06/13 00:20:05;;;;;;;;;;;;;;;;;;;;;
2023/06/13 00:23:03;;;;;;;;;;;;;;;14.49;52.74;101820.38;106476;1267;59963;-88
2023/06/13 00:25:36;;;;;;;;;;;;;;;14.48;52.70;101821.79;107002;1261;75345;-88
2023/06/13 00:28:02;;;;;;;;;;;;;;;14.46;52.70;101817.85;106774;1262;124493;-87
2023/06/13 00:30:38;;;;;;;;;;;;;;;14.44;52.61;101817.99;107050;1260;73865;-87
2023/06/13 00:33:17;;;;;;;;;;;;;;;14.44;52.60;101821.86;106882;1260;124100;-87
2023/06/13 00:35:58;;;;;;;;;;;;;;;14.42;52.61;101822.34;106724;1260;61361;-87
2023/06/13 00:45:26;;;;;;;;;;;;;;;14.36;52.49;101820.96;106801;1261;124168;-86
2023/06/13 00:48:05;;;;;;;;;;;;;;;14.35;52.46;101819.86;106901;1260;61245;-87
2023/06/13 00:50:36;;;;;;;;;;;;;;;14.32;52.50;101822.27;106900;1260;125519;-88
2023/06/13 00:53:11;;;;;;;;;;;;;;;14.29;52.43;101822.54;106975;1261;74710;-88
2023/06/13 00:55:44;;;;;;;;;;;;;;;14.24;52.51;101820.10;106909;1260;65577;-89
2023/06/13 00:58:10;;;;;;;;;;;;;;;14.15;52.47;101819.16;107049;1260;123897;-88
2023/06/13 01:00:44;;;;;;;;;;;;;;;14.07;52.52;101818.73;106882;1265;60100;-87
2023/06/13 01:03:19;;;;;;;;;;;;;;;13.97;52.55;101817.07;106882;1260;124774;-88
2023/06/13 01:05:54;;;;;;;;;;;;;;;13.89;52.71;101815.60;106799;1260;75121;-87
2023/06/13 01:08:23;;;;;;;;;;;;;;;13.83;53.00;101814.35;106956;1260;124397;-89
2023/06/13 01:11:25;;;;;;;;;;;;;;;13.79;53.17;101813.20;107262;1260;70509;-89
2023/06/13 01:14:16;;;;;;;;;;;;;;;13.77;53.09;101808.36;107262;1260;124864;-87
2023/06/13 01:17:03;;;;;;;;;;;;;;;13.75;53.24;101806.23;107403;1260;60894;-88
2023/06/13 01:19:31;;;;;;;;;;;;;;;13.76;53.37;101807.28;107179;1260;75124;-88
2023/06/13 01:21:59;;;;;;;;;;;;;;;13.76;53.43;101810.29;107059;1260;124174;-87
2023/06/13 01:24:34;;;;;;;;;;;;;;;13.74;53.62;101803.70;106979;1264;61327;-87
2023/06/13 01:27:01;;;;;;;;;;;;;;;13.73;53.72;101800.67;107059;1260;124112;-86
2023/06/13 01:29:35;;;;;;;;;;;;;;;13.71;53.74;101801.68;107185;1260;59955;-86
2023/06/13 01:32:01;;;;;;;;;;;;;;;13.71;53.92;101802.73;107043;1260;73180;-86
2023/06/13 01:34:29;;;;;;;;;;;;;;;13.71;53.94;101800.27;107213;1262;61005;-86
2023/06/13 01:36:55;;;;;;;;;;;;;;;13.73;54.03;101801.02;107395;1261;72592;-86
2023/06/13 01:39:23;;;;;;;;;;;;;;;13.75;54.17;101805.13;107175;1261;124742;-86
2023/06/13 01:41:53;;;;;;;;;;;;;;;13.78;54.26;101804.70;107230;1260;59834;-86
2023/06/13 01:44:30;;;;;;;;;;;;;;;13.80;54.20;101804.23;107331;1260;124467;-85
2023/06/13 01:47:18;;;;;;;;;;;;;;;13.84;54.27;101802.05;107487;1260;67636;-85
2023/06/13 01:49:48;;;;;;;;;;;;;;;13.87;54.27;101800.02;107289;1260;73301;-86
2023/06/13 01:52:34;;;;;;;;;;;;;;;13.90;54.23;101800.97;107114;1260;124070;-86
2023/06/13 01:55:02;;;;;;;;;;;;;;;13.91;54.10;101795.20;107189;1260;61277;-85
2023/06/13 01:57:36;;;;;;;;;;;;;;;13.93;54.01;101794.70;106959;1260;124102;-86
2023/06/13 02:00:04;;;;;;;;;;;;;;;13.94;54.06;101794.55;107064;1260;67761;-86
2023/06/13 02:02:34;;;;;;;;;;;;;;;13.95;53.88;101788.09;107298;1260;124213;-86
2023/06/13 02:05:01;;;;;;;;;;;;;;;13.97;53.92;101786.70;107249;1260;60461;-88
2023/06/13 02:07:40;;;;;;;;;;;;;;;13.98;53.92;101784.98;107078;1260;61755;-87
2023/06/13 02:10:25;;;;;;;;;;;;;;;14.01;53.91;101789.10;106787;1261;124108;-87
2023/06/13 02:12:53;;;;;;;;;;;;;;;14.01;53.85;101785.77;106859;1260;65967;-88
2023/06/13 02:19:01;;;;;;;;;;;;;;;14.02;53.77;101776.25;106877;1260;61292;-87
2023/06/13 02:21:36;;;;;;;;;;;;;;;14.03;53.72;101772.75;106677;1260;124234;-86
2023/06/13 02:24:15;;;;;;;;;;;;;;;14.04;53.68;101776.31;106710;1260;73727;-85
2023/06/13 02:26:41;;;;;;;;;;;;;;;14.06;53.62;101782.36;106770;1260;124301;-86
2023/06/13 02:29:14;;;;;;;;;;;;;;;14.05;53.48;101786.59;106857;1260;59789;-86
2023/06/13 02:31:48;;;;;;;;;;;;;;;14.05;53.47;101785.52;106951;1260;61257;-86
2023/06/13 02:34:23;;;;;;;;;;;;;;;14.04;53.45;101788.48;106792;1261;124499;-87
2023/06/13 02:36:49;;;;;;;;;;;;;;;14.02;53.51;101787.02;106921;1260;74597;-88
2023/06/13 02:39:22;;;;;;;;;;;;;;;13.99;53.51;101788.90;106735;1260;124327;-90
2023/06/13 02:41:49;;;;;;;;;;;;;;;13.95;53.54;101787.71;106991;1260;71044;-87
2023/06/13 02:44:27;;;;;;;;;;;;;;;13.92;53.58;101787.27;107049;1260;124217;-87
2023/06/13 02:47:05;;;;;;;;;;;;;;;13.90;53.52;101785.80;107078;1260;60514;-86
2023/06/13 02:49:33;;;;;;;;;;;;;;;13.90;53.77;101782.48;107050;1260;72695;-86
2023/06/13 02:52:12;;;;;;;;;;;;;;;13.91;53.65;101780.38;107012;1260;124083;-87
2023/06/13 02:54:38;;;;;;;;;;;;;;;13.94;53.64;101777.45;107101;1261;72589;-86
2023/06/13 02:57:17;;;;;;;;;;;;;;;13.98;53.58;101775.80;106887;1261;124689;-86
2023/06/13 03:00:03;;;;;;;;;;;;;;;14.03;53.50;101771.15;107031;1260;62170;-89
2023/06/13 03:02:31;;;;;;;;;;;;;;;14.03;53.38;101772.58;106702;1260;124297;-87
2023/06/13 03:05:08;;;;;;;;;;;;;;;14.00;53.20;101776.73;106959;1261;65895;-87
2023/06/13 03:07:42;;;;;;;;;;;;;;;13.96;53.14;101774.16;107003;1260;72404;-85
2023/06/13 03:10:09;;;;;;;;;;;;;;;13.93;53.20;101772.48;106814;1260;124098;-85
2023/06/13 03:13:00;;;;;;;;;;;;;;;13.92;53.32;101771.56;107109;1260;59742;-86
2023/06/13 03:15:47;;;;;;;;;;;;;;;13.91;53.29;101768.02;107007;1260;124422;-87
2023/06/13 03:18:18;;;;;;;;;;;;;;;13.93;53.37;101766.48;107072;1260;66963;-86
2023/06/13 03:20:47;;;;;;;;;;;;;;;13.96;53.43;101760.55;106961;1260;124737;-86
2023/06/13 03:23:17;;;;;;;;;;;;;;;14.03;53.44;101761.81;106927;1261;60011;-86
2023/06/13 03:25:43;;;;;;;;;;;;;;;14.16;53.63;101764.11;107002;1260;61249;-86
2023/06/13 03:28:42;;;;;;;;;;;;;;;14.46;53.84;101761.88;106945;1263;124136;-86
2023/06/13 03:31:16;;;;;;;;;;;;;;;14.89;53.61;101763.13;106933;1260;67257;-86
2023/06/13 03:33:43;;;;;;;;;;;;;;;15.11;52.99;101763.98;106876;1260;124326;-86
2023/06/13 03:36:10;;;;;;;;;;;;;;;15.13;52.59;101768.46;106929;1263;60021;-86
2023/06/13 03:38:37;;;;;;;;;;;;;;;15.15;52.49;101770.97;107075;1260;124599;-86
2023/06/13 03:41:03;;;;;;;;;;;;;;;15.24;52.20;101768.50;107193;1260;60009;-86
2023/06/13 03:43:37;;;;;;;;;;;;;;;15.39;52.13;101770.96;107078;1260;61327;-86
2023/06/13 03:46:04;;;;;;;;;;;;;;;15.71;52.04;101772.35;107072;1260;124922;-87
2023/06/13 03:48:32;;;;;;;;;;;;;;;16.63;52.53;101770.66;107409;1263;61228;-87
2023/06/13 03:51:02;;;;;;;;;;;;;;;18.68;52.13;101766.95;107370;1260;124257;-87
2023/06/13 03:53:40;;;;;;;;;;;;;;;20.86;50.40;101761.30;107500;1260;74530;-86
2023/06/13 03:56:18;;;;;;;;;;;;;;;22.96;48.22;101763.92;107213;1260;124800;-86
2023/06/13 03:58:46;;;;;;;;;;;;;;;25.06;45.89;101758.79;107560;1259;71402;-85
2023/06/13 04:01:12;;;;;;;;;;;;;;;26.78;43.86;101764.32;107436;1261;61241;-85
2023/06/13 04:03:46;;;;;;;;;;;;;;;28.28;41.83;101765.15;107144;1265;124927;-87
2023/06/13 04:06:18;;;;;;;;;;;;;;;29.43;39.67;101767.13;107179;1261;72474;-85
2023/06/13 04:08:48;;;;;;;;;;;;;;;29.79;37.73;101765.05;107056;1260;124138;-84
2023/06/13 04:11:21;;;;;;;;;;;;;;;29.70;36.54;101763.06;106982;1260;72736;-86
2023/06/13 04:13:47;;;;;;;;;;;;;;;29.67;35.83;101761.90;107279;1260;59979;-83
2023/06/13 04:16:15;;;;;;;;;;;;;;;29.50;34.70;101758.00;107452;1260;123871;-83
2023/06/13 04:18:42;;;;;;;;;;;;;;;29.09;33.84;101758.62;107172;1264;74939;-83
2023/06/13 04:21:08;;;;;;;;;;;;;;;28.18;33.37;101760.08;107162;1260;124745;-84
2023/06/13 04:23:35;;;;;;;;;;;;;;;26.93;33.37;101762.84;106963;1260;61215;-84
2023/06/13 04:26:03;;;;;;;;;;;;;;;26.23;33.84;101766.41;107069;1260;60925;-84
2023/06/13 04:28:33;;;;;;;;;;;;;;;26.46;34.13;101766.02;107362;1260;61063;-83
2023/06/13 04:31:03;;;;;;;;;;;;;;;26.77;33.89;101762.04;108208;1260;75011;-83
2023/06/13 04:33:29;;;;;;;;;;;;;;;26.99;33.60;101762.15;107402;1260;124785;-83
2023/06/13 04:36:03;;;;;;;;;;;;;;;27.12;33.17;101764.13;107379;1260;60084;-82
2023/06/13 04:38:30;;;;;;;;;;;;;;;26.93;32.93;101764.29;107220;1260;124932;-81
2023/06/13 04:40:57;;;;;;;;;;;;;;;26.92;32.79;101764.70;107176;1260;61244;-86
2023/06/13 04:43:23;;;;;;;;;;;;;;;27.48;32.91;101764.40;107420;1260;74678;-84
2023/06/13 04:45:49;;;;;;;;;;;;;;;28.15;32.40;101761.80;107358;1265;125004;-83
2023/06/13 04:48:18;;;;;;;;;;;;;;;28.79;31.75;101762.77;107260;1260;59857;-83
2023/06/13 04:50:44;;;;;;;;;;;;;;;29.32;31.26;101765.40;107595;1260;125080;-83
2023/06/13 04:53:15;;;;;;;;;;;;;;;30.48;31.17;101766.06;107509;1261;60683;-85
2023/06/13 04:55:43;;;;;;;;;;;;;;;32.14;30.52;101764.10;107374;1261;66193;-84
2023/06/13 04:58:09;;;;;;;;;;;;;;;33.89;29.46;101765.81;107089;1260;124848;-85
2023/06/13 05:00:35;;;;;;;;;;;;;;;35.09;28.30;101766.75;107149;1260;61280;-83
2023/06/13 05:03:02;;;;;;;;;;;;;;;36.22;27.38;101771.17;106978;1260;124780;-85
2023/06/13 05:05:28;;;;;;;;;;;;;;;36.95;26.09;101771.16;106921;1265;61330;-85
2023/06/13 05:07:59;;;;;;;;;;;;;;;36.99;25.24;101771.04;106962;1266;60451;-85
2023/06/13 05:10:25;;;;;;;;;;;;;;;36.81;24.67;101772.01;107134;1260;60974;-83
2023/06/13 05:12:58;;;;;;;;;;;;;;;36.71;24.36;101773.56;106992;1261;61261;-84
2023/06/13 05:15:25;;;;;;;;;;;;;;;36.31;23.74;101775.33;107039;1260;124505;-87
2023/06/13 05:17:54;;;;;;;;;;;;;;;35.68;23.56;101774.54;107238;1260;61030;-85
2023/06/13 05:20:46;;;;;;;;;;;;;;;35.44;23.56;101781.38;106887;1260;124412;-88
2023/06/13 05:23:13;;;;;;;;;;;;;;;35.33;23.46;101776.57;107038;1260;61284;-84
2023/06/13 05:25:39;;;;;;;;;;;;;;;35.76;23.32;101777.38;106920;1261;62832;-85
2023/06/13 05:28:08;;;;;;;;;;;;;;;35.85;23.17;101778.57;107016;1261;124206;-85
2023/06/13 05:30:40;;;;;;;;;;;;;;;36.22;22.91;101777.61;107122;1260;61218;-84
2023/06/13 05:33:14;;;;;;;;;;;;;;;36.86;22.69;101776.93;107480;1261;124284;-85
2023/06/13 05:35:40;;;;;;;;;;;;;;;37.75;22.08;101778.22;107130;1260;61142;-84
2023/06/13 05:38:09;;;;;;;;;;;;;;;38.30;21.84;101781.11;107017;1260;124405;-84
2023/06/13 05:40:36;;;;;;;;;;;;;;;38.18;20.66;101781.28;107258;1261;61133;-87
2023/06/13 05:43:03;;;;;;;;;;;;;;;36.45;20.45;101774.85;107184;1260;59752;-86
2023/06/13 05:45:29;;;;;;;;;;;;;;;34.48;20.91;101779.48;107088;1260;124455;-85
2023/06/13 05:47:55;;;;;;;;;;;;;;;32.33;21.45;101777.65;107174;1261;61475;-85
2023/06/13 05:50:25;;;;;;;;;;;;;;;30.53;22.34;101777.02;107220;1262;124856;-85
2023/06/13 05:52:51;;;;;;;;;;;;;;;28.90;23.04;101775.35;107176;1260;60388;-86
2023/06/13 05:55:18;;;;;;;;;;;;;;;27.70;24.00;101784.29;107289;1260;60006;-86
2023/06/13 05:57:46;;;;;;;;;;;;;;;26.56;24.66;101787.55;107109;1261;124360;-87
2023/06/13 06:00:16;;;;;;;;;;;;;;;25.52;25.50;101787.91;106977;1260;66889;-87
2023/06/13 06:02:44;;;;;;;;;;;;;;;24.38;26.17;101786.70;107198;1261;124380;-86
2023/06/13 06:05:13;;;;;;;;;;;;;;;23.36;27.12;101788.08;107151;1260;61265;-86
2023/06/13 06:07:40;;;;;;;;;;;;;;;22.79;28.03;101785.06;106836;1261;59867;-86
2023/06/13 06:10:07;;;;;;;;;;;;;;;22.27;28.79;101792.27;106763;1264;124180;-86
2023/06/13 06:12:36;;;;;;;;;;;;;;;21.75;29.33;101792.73;106946;1261;66833;-86
2023/06/13 06:15:04;;;;;;;;;;;;;;;21.32;29.93;101787.87;106952;1260;124430;-87
2023/06/13 06:17:41;;;;;;;;;;;;;;;20.84;30.58;101788.86;107077;1260;61160;-84
2023/06/13 06:20:08;;;;;;;;;;;;;;;20.49;31.17;101791.50;107102;1260;124443;-85
2023/06/13 06:22:43;;;;;;;;;;;;;;;20.12;31.83;101796.79;107204;1260;75133;-84
2023/06/13 06:25:12;;;;;;;;;;;;;;;20.00;32.47;101795.52;107069;1260;65463;-86
2023/06/13 06:27:53;;;;;;;;;;;;;;;19.98;32.89;101797.30;107159;1260;124917;-85
2023/06/13 06:30:25;;;;;;;;;;;;;;;19.88;33.13;101798.87;107232;1265;61363;-85
2023/06/13 06:32:54;;;;;;;;;;;;;;;19.81;33.37;101795.11;107169;1260;124616;-85
2023/06/13 06:35:20;;;;;;;;;;;;;;;19.66;33.68;101794.66;107396;1260;74206;-85
2023/06/13 06:37:48;;;;;;;;;;;;;;;19.67;34.11;101792.70;107306;1260;59764;-86
2023/06/13 06:40:16;;;;;;;;;;;;;;;19.81;34.37;101792.61;107007;1262;124125;-86
2023/06/13 06:42:49;;;;;;;;;;;;;;;19.92;34.51;101788.73;106974;1260;60559;-86
2023/06/13 06:45:18;;;;;;;;;;;;;;;19.86;34.39;101786.39;106955;1260;124392;-86
2023/06/13 06:47:45;;;;;;;;;;;;;;;19.72;34.57;101785.45;106990;1266;72451;-86
2023/06/13 06:50:15;;;;;;;;;;;;;;;19.68;34.82;101790.92;106955;1260;124745;-86
2023/06/13 06:52:41;;;;;;;;;;;;;;;19.60;34.94;101791.78;107064;1265;71603;-85
2023/06/13 06:55:07;;;;;;;;;;;;;;;19.59;35.22;101790.70;107042;1261;62640;-85
2023/06/13 06:57:33;;;;;;;;;;;;;;;19.56;35.34;101789.27;106979;1260;124481;-85
2023/06/13 07:00:00;;;;;;;;;;;;;;;19.43;35.11;101795.09;106869;1265;59821;-85
2023/06/13 07:02:27;;;;;;;;;;;;;;;19.23;35.26;101788.75;106987;1260;124426;-85
2023/06/13 07:05:00;;;;;;;;;;;;;;;19.10;35.43;101792.59;107301;1260;73202;-85
2023/06/13 07:07:35;;;;;;;;;;;;;;;18.97;35.70;101788.23;107147;1265;59711;-85
2023/06/13 07:10:05;;;;;;;;;;;;;;;18.92;35.96;101790.67;106930;1263;124462;-85
2023/06/13 07:12:34;;;;;;;;;;;;;;;18.82;36.14;101790.98;107275;1260;75336;-85
2023/06/13 07:15:00;;;;;;;;;;;;;;;18.77;36.24;101789.10;107397;1260;124338;-85
2023/06/13 07:17:26;;;;;;;;;;;;;;;18.82;36.59;101787.05;107083;1260;59970;-86
2023/06/13 07:20:11;;;;;;;;;;;;;;;18.92;36.79;101784.45;106709;1264;125373;-85
2023/06/13 07:22:37;;;;;;;;;;;;;;;19.09;36.94;101781.20;106637;1264;62218;-85
2023/06/13 07:25:04;;;;;;;;;;;;;;;19.19;36.93;101780.70;106808;1267;61436;-86
2023/06/13 07:27:38;;;;;;;;;;;;;;;19.17;36.96;101784.80;106664;1264;125065;-85
2023/06/13 07:30:08;;;;;;;;;;;;;;;19.10;37.36;101785.46;106867;1264;72722;-85
2023/06/13 07:32:35;;;;;;;;;;;;;;;19.15;37.43;101788.52;106660;1264;124951;-85
2023/06/13 07:35:02;;;;;;;;;;;;;;;19.11;37.74;101788.15;106701;1264;60495;-85
2023/06/13 07:37:37;;;;;;;;;;;;;;;19.03;37.92;101786.13;107018;1264;74339;-84
2023/06/13 07:40:16;;;;;;;;;;;;;;;18.97;38.18;101782.89;107040;1263;124638;-86
2023/06/13 07:42:48;;;;;;;;;;;;;;;18.86;38.27;101786.02;106967;1264;71329;-85
2023/06/13 07:45:17;;;;;;;;;;;;;;;18.74;38.66;101788.73;106608;1264;124383;-85
2023/06/13 07:47:46;;;;;;;;;;;;;;;18.74;38.79;101785.00;106779;1264;61420;-85
2023/06/13 07:50:12;;;;;;;;;;;;;;;18.79;39.08;101782.91;106867;1265;124694;-85
2023/06/13 07:52:43;;;;;;;;;;;;;;;18.98;39.03;101784.50;106937;1264;65916;-86
2023/06/13 07:55:10;;;;;;;;;;;;;;;19.12;39.07;101786.55;106712;1263;60148;-86
2023/06/13 07:57:40;;;;;;;;;;;;;;;19.34;39.02;101786.50;106719;1261;124226;-86
2023/06/13 08:00:12;;;;;;;;;;;;;;;19.44;39.04;101790.46;106922;1260;61222;-86
2023/06/13 08:02:47;;;;;;;;;;;;;;;19.74;38.99;101786.52;106901;1260;124520;-86
2023/06/13 08:05:15;;;;;;;;;;;;;;;19.94;38.74;101781.96;107205;1260;65906;-86
2023/06/13 08:07:50;;;;;;;;;;;;;;;20.15;38.59;101785.05;107255;1261;72918;-87
2023/06/13 08:10:26;;;;;;;;;;;;;;;20.21;38.18;101785.05;107129;1260;124349;-85
2023/06/13 08:12:52;;;;;;;;;;;;;;;20.19;38.08;101786.29;107252;1260;60126;-85
2023/06/13 08:15:19;;;;;;;;;;;;;;;20.24;38.08;101790.41;107096;1262;124926;-85
2023/06/13 08:17:45;;;;;;;;;;;;;;;20.33;38.21;101788.98;107410;1260;60149;-85
2023/06/13 08:23:08;;;;;;;;;;;;;;;20.91;37.95;101783.67;107123;1261;61275;-88
2023/06/13 08:25:41;;;;;;;;;;;;;;;21.13;37.58;101785.94;107048;1262;61132;-85
2023/06/13 08:28:17;;;;;;;;;;;;;;;21.12;37.21;101787.75;106915;1261;124295;-85
2023/06/13 08:30:43;;;;;;;;;;;;;;;21.32;37.28;101784.31;107267;1261;65139;-85
2023/06/13 08:33:11;;;;;;;;;;;;;;;21.39;36.78;101787.31;107387;1261;124944;-85
2023/06/13 08:35:40;;;;;;;;;;;;;;;21.31;36.81;101783.58;107528;1260;61115;-86
2023/06/13 08:38:07;;;;;;;;;;;;;;;21.18;36.75;101782.71;107253;1261;60690;-87
2023/06/13 08:40:43;;;;;;;;;;;;;;;21.05;36.85;101782.40;106976;1261;75280;-87
2023/06/13 08:43:10;;;;;;;;;;;;;;;20.96;36.99;101780.80;106853;1261;67653;-84
2023/06/13 08:45:43;;;;;;;;;;;;;;;20.98;37.13;101780.45;106809;1260;124100;-86
2023/06/13 08:48:24;;;;;;;;;;;;;;;20.97;37.12;101779.55;106790;1261;59786;-86
2023/06/13 08:51:07;;;;;;;;;;;;;;;21.02;37.43;101777.41;106954;1260;125208;-86
2023/06/13 08:56:27;;;;;;;;;;;;;;;21.41;37.24;101764.09;107307;1260;124572;-86
2023/06/13 08:58:56;;;;;;;;;;;;;;;21.56;37.18;101766.56;99859;1261;10173990;-86
2023/06/13 09:01:27;;;;;;;;;;;;;;;21.50;37.24;101772.83;107300;1261;60955;-85
2023/06/13 09:03:57;;;;;;;;;;;;;;;21.52;37.33;101772.83;107229;1261;124334;-86
2023/06/13 09:06:33;;;;;;;;;;;;;;;21.38;37.23;101776.43;107047;1262;66912;-85
2023/06/13 09:09:09;;;;;;;;;;;;;;;21.34;37.67;101777.52;106861;1261;124196;-86
2023/06/13 09:11:38;;;;;;;;;;;;;;;21.43;37.73;101776.77;106887;1262;61099;-86
2023/06/13 09:14:05;;;;;;;;;;;;;;;21.51;37.81;101776.05;107083;1261;59714;-85
2023/06/13 09:16:32;;;;;;;;;;;;;;;21.60;37.94;101771.36;106953;1261;124824;-86
2023/06/13 09:19:12;;;;;;;;;;;;;;;21.72;37.75;101775.79;107062;1260;65752;-86
2023/06/13 09:21:44;;;;;;;;;;;;;;;21.56;37.73;101771.73;106962;1262;124598;-86
2023/06/13 09:24:19;;;;;;;;;;;;;;;21.52;37.88;101778.36;107207;1262;59556;-86
2023/06/13 09:27:01;;;;;;;;;;;;;;;21.39;38.00;101779.27;107016;1261;124250;-86
2023/06/13 09:29:34;;;;;;;;;;;;;;;21.31;38.08;101774.48;107016;1262;73210;-85
2023/06/13 09:32:19;;;;;;;;;;;;;;;21.20;38.22;101770.05;107455;1261;67185;-86
2023/06/13 09:34:53;;;;;;;;;;;;;;;21.08;38.07;101770.08;107182;1262;72711;-86
2023/06/13 09:37:24;;;;;;;;;;;;;;;20.93;38.33;101769.39;107003;1261;59678;-87
2023/06/13 09:40:08;;;;;;;;;;;;;;;20.82;38.37;101768.69;107031;1260;124875;-87
2023/06/13 09:42:35;;;;;;;;;;;;;;;20.71;38.54;101769.95;107287;1262;74748;-87
2023/06/13 09:45:04;;;;;;;;;;;;;;;20.66;38.91;101767.10;107044;1260;124455;-87
2023/06/13 09:47:53;;;;;;;;;;;;;;;20.59;38.90;101770.65;106861;1262;71593;-87
2023/06/13 09:50:19;;;;;;;;;;;;;;;20.62;39.10;101770.67;106776;1260;124285;-87
2023/06/13 09:52:58;;;;;;;;;;;;;;;20.66;39.15;101768.71;107245;1262;60021;-87
2023/06/13 09:55:27;;;;;;;;;;;;;;;20.77;39.21;101761.92;107158;1262;73086;-87
2023/06/13 09:57:53;;;;;;;;;;;;;;;20.98;39.08;101764.39;107131;1262;124648;-85
2023/06/13 10:00:21;;;;;;;;;;;;;;;21.08;39.02;101762.58;107296;1262;59838;-85
2023/06/13 10:02:53;;;;;;;;;;;;;;;21.11;38.96;101756.86;106738;1261;124368;-86
2023/06/13 10:05:20;;;;;;;;;;;;;;;21.06;38.78;101759.20;107057;1261;60912;-85
2023/06/13 10:08:06;;;;;;;;;;;;;;;20.86;38.77;101759.95;106967;1260;73396;-85
2023/06/13 10:10:35;;;;;;;;;;;;;;;20.78;39.05;101751.21;107066;1260;124419;-86
2023/06/13 10:13:02;;;;;;;;;;;;;;;20.91;39.33;101752.09;107106;1262;70443;-86
2023/06/13 10:15:48;;;;;;;;;;;;;;;21.18;39.11;101743.27;106738;1262;124391;-85
2023/06/13 10:18:18;;;;;;;;;;;;;;;21.43;38.71;101746.23;107070;1266;60370;-86
2023/06/13 10:20:51;;;;;;;;;;;;;;;21.63;38.68;101744.55;106989;1260;124684;-85
2023/06/13 10:23:20;;;;;;;;;;;;;;;22.03;38.69;101743.43;107192;1261;65456;-86
2023/06/13 10:25:50;;;;;;;;;;;;;;;22.33;38.34;101748.25;107111;1262;71992;-86
2023/06/13 10:28:24;;;;;;;;;;;;;;;22.63;37.99;101749.44;106911;1260;124933;-85
2023/06/13 10:30:55;;;;;;;;;;;;;;;22.91;37.67;101749.88;107033;1262;62073;-86
2023/06/13 10:33:35;;;;;;;;;;;;;;;22.93;37.17;101750.21;106751;1261;124650;-85
2023/06/13 10:36:03;;;;;;;;;;;;;;;22.96;37.17;101745.71;106875;1262;65816;-86
2023/06/13 10:38:49;;;;;;;;;;;;;;;22.99;37.05;101740.66;107275;1264;125108;-87
2023/06/13 10:41:15;;;;;;;;;;;;;;;23.02;37.07;101739.02;107360;1261;59782;-86
2023/06/13 10:43:45;;;;;;;;;;;;;;;22.97;36.92;101739.80;107213;1261;61295;-86
2023/06/13 10:46:23;;;;;;;;;;;;;;;22.86;36.92;101735.27;106916;1262;124492;-86
2023/06/13 10:48:50;;;;;;;;;;;;;;;22.85;37.04;101729.18;107223;1260;66905;-85
2023/06/13 10:51:23;;;;;;;;;;;;;;;22.92;37.20;101724.45;107009;1263;124457;-86
2023/06/13 10:54:08;;;;;;;;;;;;;;;23.10;37.04;101721.95;107018;1261;61889;-86
2023/06/13 10:56:37;;;;;;;;;;;;;;;23.23;36.79;101720.38;106828;1260;124706;-86
2023/06/13 10:59:15;;;;;;;;;;;;;;;23.08;37.35;101726.27;107017;1265;73445;-87
2023/06/13 11:01:44;;;;;;;;;;;;;;;22.76;38.05;101724.08;106963;1265;66856;-87
2023/06/13 11:04:19;;;;;;;;;;;;;;;22.52;38.78;101718.05;106767;1262;124772;-86
2023/06/13 11:06:47;;;;;;;;;;;;;;;22.34;39.13;101724.10;106918;1262;61236;-87
2023/06/13 11:09:17;;;;;;;;;;;;;;;22.10;39.40;101711.75;107226;1265;124432;-85
2023/06/13 11:11:53;;;;;;;;;;;;;;;21.89;39.86;101707.96;107400;1260;74999;-86
2023/06/13 11:14:21;;;;;;;;;;;;;;;21.84;40.07;101705.67;107133;1262;124794;-86
2023/06/13 11:17:03;;;;;;;;;;;;;;;21.72;40.43;101701.10;107159;1260;72492;-86
2023/06/13 11:19:45;;;;;;;;;;;;;;;21.63;40.47;101709.56;106891;1262;60548;-87
2023/06/13 11:22:13;;;;;;;;;;;;;;;21.52;40.71;101707.48;106934;1261;124669;-87
2023/06/13 11:24:41;;;;;;;;;;;;;;;21.39;40.90;101712.86;107008;1261;74510;-86
2023/06/13 11:27:16;;;;;;;;;;;;;;;21.17;41.22;101712.41;106981;1262;124340;-85
2023/06/13 11:29:45;;;;;;;;;;;;;;;20.97;41.69;101703.19;107397;1261;72448;-86
2023/06/13 11:32:13;;;;;;;;;;;;;;;20.77;41.82;101706.08;107422;1264;61236;-87
2023/06/13 11:34:47;;;;;;;;;;;;;;;20.47;42.16;101707.35;107408;1261;60094;-85
2023/06/13 11:37:44;;;;;;;;;;;;;;;20.16;42.38;101702.00;107398;1260;74564;-86
2023/06/13 11:40:22;;;;;;;;;;;;;;;19.95;42.83;101698.95;107062;1261;124243;-86
2023/06/13 11:42:49;;;;;;;;;;;;;;;19.85;43.16;101695.91;107197;1262;71107;-86
2023/06/13 11:45:34;;;;;;;;;;;;;;;19.91;43.60;101696.45;106900;1262;124772;-87
2023/06/13 11:48:25;;;;;;;;;;;;;;;19.94;43.58;101690.41;107091;1260;61367;-86
2023/06/13 11:50:53;;;;;;;;;;;;;;;19.89;44.12;101696.63;106913;1265;124959;-86
2023/06/13 11:53:31;;;;;;;;;;;;;;;19.77;44.39;101698.91;107150;1261;66816;-86
2023/06/13 11:56:04;;;;;;;;;;;;;;;19.58;44.61;101700.96;106969;1262;71356;-86
2023/06/13 11:58:31;;;;;;;;;;;;;;;19.54;44.90;101689.55;106917;1260;124195;-87
2023/06/13 12:01:18;;;;;;;;;;;;;;;19.56;45.09;101689.92;107261;1260;59518;-86
2023/06/13 12:03:44;;;;;;;;;;;;;;;19.55;45.18;101688.51;107034;1265;124831;-86
2023/06/13 12:06:17;;;;;;;;;;;;;;;19.61;45.53;101686.56;107004;1264;67047;-86
2023/06/13 12:08:47;;;;;;;;;;;;;;;19.86;45.67;101687.89;107006;1261;124674;-87
2023/06/13 12:11:37;;;;;;;;;;;;;;;20.04;45.67;101682.39;107099;1260;61040;-87
2023/06/13 12:14:03;;;;;;;;;;;;;;;20.29;45.38;101680.61;107223;1261;61262;-84
2023/06/13 12:16:34;;;;;;;;;;;;;;;20.36;45.37;101680.79;107139;1261;124447;-86
2023/06/13 12:19:01;;;;;;;;;;;;;;;20.49;45.05;101686.66;107195;1260;66988;-86
2023/06/13 12:21:29;;;;;;;;;;;;;;;20.55;44.83;101683.98;107023;1266;125000;-87
2023/06/13 12:24:02;;;;;;;;;;;;;;;20.53;44.87;101679.70;107059;1262;61212;-86
2023/06/13 12:26:32;;;;;;;;;;;;;;;20.63;44.74;101685.07;107009;1261;61153;-85
2023/06/13 12:29:01;;;;;;;;;;;;;;;20.74;44.64;101685.23;107075;1262;72410;-87
2023/06/13 12:31:32;;;;;;;;;;;;;;;20.83;44.51;101682.53;108276;1260;66933;-86
2023/06/13 12:34:26;;;;;;;;;;;;;;;20.92;44.46;101684.30;107107;1266;124831;-86
2023/06/13 12:36:54;;;;;;;;;;;;;;;20.95;44.47;101684.27;107265;1260;61217;-87
2023/06/13 12:39:30;;;;;;;;;;;;;;;20.83;44.44;101685.74;107201;1260;124722;-86
2023/06/13 12:41:58;;;;;;;;;;;;;;;20.61;44.57;101679.35;106905;1262;72419;-87
2023/06/13 12:44:40;;;;;;;;;;;;;;;20.43;44.68;101684.52;106672;1262;124423;-86
2023/06/13 12:47:07;;;;;;;;;;;;;;;20.28;44.97;101677.94;107001;1263;72621;-87
2023/06/13 12:49:47;;;;;;;;;;;;;;;20.26;45.18;101684.89;106935;1260;61288;-87
2023/06/13 12:52:21;;;;;;;;;;;;;;;20.25;45.26;101687.74;107032;1261;124217;-87
2023/06/13 12:54:48;;;;;;;;;;;;;;;20.26;45.27;101685.08;107205;1264;73328;-87
2023/06/13 12:57:15;;;;;;;;;;;;;;;20.27;45.38;101674.92;107324;1261;124322;-87
2023/06/13 12:59:52;;;;;;;;;;;;;;;20.34;45.32;101667.95;107296;1262;73169;-87
2023/06/13 13:02:20;;;;;;;;;;;;;;;20.41;45.44;101668.84;106707;1262;61240;-85
2023/06/13 13:04:59;;;;;;;;;;;;;;;20.45;45.44;101664.91;106846;1262;60476;-86
2023/06/13 13:07:33;;;;;;;;;;;;;;;20.49;45.31;101669.73;106817;1262;73590;-86